createdAt,value
2023-05-15T00:01:37.462Z,32.58
2023-05-15T00:04:06.691Z,34.35
2023-05-15T00:06:34.430Z,30.02
2023-05-15T00:09:02.749Z,26.42
2023-05-15T00:11:30.648Z,28.80
2023-05-15T00:13:58.459Z,33.15
2023-05-15T00:16:26.246Z,34.72
2023-05-15T00:18:54.140Z,36.10
2023-05-15T00:21:23.304Z,31.08
2023-05-15T00:23:54.005Z,34.00
2023-05-15T00:26:24.416Z,37.92
2023-05-15T00:28:53.210Z,31.25
2023-05-15T00:31:22.097Z,33.72
2023-05-15T00:33:49.896Z,29.92
2023-05-15T00:36:17.750Z,34.35
2023-05-15T00:38:47.007Z,32.50
2023-05-15T00:41:16.794Z,31.92
2023-05-15T00:43:44.942Z,34.45
2023-05-15T00:46:14.120Z,31.67
2023-05-15T00:48:44.646Z,30.90
2023-05-15T00:51:13.295Z,31.80
2023-05-15T00:53:41.700Z,31.17
2023-05-15T00:56:13.127Z,27.90
2023-05-15T00:58:41.094Z,39.28
2023-05-15T01:01:08.955Z,34.08
2023-05-15T01:03:37.740Z,32.22
2023-05-15T01:06:06.178Z,35.22
2023-05-15T01:08:40.771Z,33.00
2023-05-15T01:11:12.798Z,34.13
2023-05-15T01:13:40.890Z,36.78
2023-05-15T01:16:09.951Z,26.15
2023-05-15T01:18:38.578Z,29.08
2023-05-15T01:22:01.129Z,27.70
2023-05-15T01:24:52.119Z,28.05
2023-05-15T01:27:30.522Z,27.42
2023-05-15T01:30:06.507Z,33.30
2023-05-15T01:33:01.229Z,35.97
2023-05-15T01:35:33.493Z,26.70
2023-05-15T01:38:14.068Z,28.35
2023-05-15T01:40:42.812Z,27.30
2023-05-15T01:43:16.779Z,31.77
2023-05-15T01:45:46.027Z,32.38
2023-05-15T01:48:16.448Z,25.58
2023-05-15T01:50:46.695Z,29.83
2023-05-15T01:53:16.282Z,27.63
2023-05-15T01:55:44.720Z,30.67
2023-05-15T01:58:13.329Z,29.10
2023-05-15T02:00:42.862Z,28.83
2023-05-15T02:03:11.300Z,29.88
2023-05-15T02:05:40.819Z,30.75
2023-05-15T02:08:09.954Z,28.40
2023-05-15T02:10:38.241Z,28.23
2023-05-15T02:13:07.353Z,26.77
2023-05-15T02:15:36.763Z,28.55
2023-05-15T02:18:04.981Z,31.42
2023-05-15T02:20:32.800Z,32.22
2023-05-15T02:23:01.973Z,28.25
2023-05-15T02:25:38.606Z,29.63
2023-05-15T02:28:16.713Z,26.50
2023-05-15T02:30:50.794Z,29.00
2023-05-15T02:33:27.012Z,30.60
2023-05-15T02:35:59.886Z,31.88
2023-05-15T02:38:32.092Z,38.42
2023-05-15T02:41:01.742Z,30.83
2023-05-15T02:43:30.980Z,29.40
2023-05-15T02:46:00.840Z,33.45
2023-05-15T02:48:28.902Z,29.23
2023-05-15T02:50:56.793Z,37.65
2023-05-15T02:53:24.602Z,32.03
2023-05-15T02:55:53.687Z,34.72
2023-05-15T02:58:21.543Z,33.55
2023-05-15T03:00:49.596Z,41.35
2023-05-15T03:03:17.636Z,38.88
2023-05-15T03:05:45.449Z,37.20
2023-05-15T03:08:13.304Z,40.65
2023-05-15T03:10:41.022Z,33.80
2023-05-15T03:13:10.208Z,38.47
2023-05-15T03:15:38.630Z,35.75
2023-05-15T03:18:06.611Z,39.00
2023-05-15T03:20:34.644Z,40.22
2023-05-15T03:23:02.508Z,38.63
2023-05-15T03:25:30.328Z,38.17
2023-05-15T03:27:58.203Z,38.50
2023-05-15T03:30:27.342Z,34.50
2023-05-15T03:32:57.342Z,39.83
2023-05-15T03:35:26.312Z,35.40
2023-05-15T03:37:54.291Z,41.38
2023-05-15T03:40:22.134Z,37.35
2023-05-15T03:42:53.522Z,36.33
2023-05-15T03:45:21.623Z,89.15
2023-05-15T03:47:50.905Z,150.20
2023-05-15T03:50:18.973Z,82.47
2023-05-15T03:52:46.823Z,132.48
2023-05-15T03:55:14.692Z,69.20
2023-05-15T03:57:42.660Z,31.23
2023-05-15T04:00:12.113Z,86.40
2023-05-15T04:02:40.618Z,29.83
2023-05-15T04:05:10.455Z,24.20
2023-05-15T04:07:38.488Z,28.23
2023-05-15T04:10:07.220Z,31.30
2023-05-15T04:12:36.554Z,30.42
2023-05-15T04:15:18.643Z,31.10
2023-05-15T04:17:47.734Z,37.25
2023-05-15T04:20:18.309Z,37.97
2023-05-15T04:22:46.988Z,40.22
2023-05-15T04:25:16.260Z,42.80
2023-05-15T04:27:44.684Z,53.33
2023-05-15T04:30:13.830Z,48.42
2023-05-15T04:32:42.375Z,42.13
2023-05-15T04:35:13.394Z,48.38
2023-05-15T04:37:45.364Z,50.70
2023-05-15T04:40:15.010Z,50.05
2023-05-15T04:42:43.296Z,59.35
2023-05-15T04:45:11.447Z,49.55
2023-05-15T04:47:39.419Z,51.63
2023-05-15T04:50:09.137Z,53.80
2023-05-15T04:52:37.327Z,49.03
2023-05-15T04:55:08.202Z,51.85
2023-05-15T04:57:36.102Z,50.28
2023-05-15T05:00:05.755Z,48.40
2023-05-15T05:02:34.165Z,48.92
2023-05-15T05:05:02.079Z,49.42
2023-05-15T05:07:30.163Z,51.30
2023-05-15T05:09:58.080Z,47.60
2023-05-15T05:12:28.050Z,46.03
2023-05-15T05:14:56.817Z,37.90
2023-05-15T05:17:24.801Z,43.45
2023-05-15T05:19:52.663Z,38.75
2023-05-15T05:22:20.609Z,40.15
2023-05-15T05:24:48.511Z,37.33
2023-05-15T05:27:16.471Z,31.40
2023-05-15T05:29:46.278Z,35.60
2023-05-15T05:32:14.167Z,34.45
2023-05-15T05:34:42.229Z,28.45
2023-05-15T05:37:10.285Z,32.65
2023-05-15T05:39:38.090Z,31.42
2023-05-15T05:42:06.696Z,32.58
2023-05-15T05:44:37.727Z,29.15
2023-05-15T05:47:07.378Z,36.20
2023-05-15T05:49:35.192Z,32.05
2023-05-15T05:52:11.858Z,32.67
2023-05-15T05:54:39.618Z,30.83
2023-05-15T05:57:07.756Z,30.23
2023-05-15T05:59:37.451Z,31.58
2023-05-15T06:02:06.928Z,32.95
2023-05-15T06:04:34.926Z,31.08
2023-05-15T06:07:04.698Z,29.65
2023-05-15T06:09:32.924Z,34.80
2023-05-15T06:12:04.740Z,28.85
2023-05-15T06:14:32.711Z,31.92
2023-05-15T06:17:01.454Z,32.55
2023-05-15T06:19:30.837Z,32.03
2023-05-15T06:21:58.727Z,35.25
2023-05-15T06:24:26.906Z,29.08
2023-05-15T06:26:54.850Z,30.73
2023-05-15T06:29:22.694Z,24.02
2023-05-15T06:31:50.495Z,22.65
2023-05-15T06:34:18.377Z,21.15
2023-05-15T06:36:47.869Z,22.05
2023-05-15T06:39:15.770Z,23.83
2023-05-15T06:41:43.562Z,26.02
2023-05-15T06:44:11.249Z,28.42
2023-05-15T06:46:39.068Z,32.20
2023-05-15T06:49:06.951Z,29.08
2023-05-15T06:51:34.869Z,31.80
2023-05-15T06:54:04.829Z,24.95
2023-05-15T06:56:32.722Z,25.88
2023-05-15T06:59:00.514Z,28.33
2023-05-15T07:01:28.320Z,27.88
2023-05-15T07:03:56.256Z,26.15
2023-05-15T07:06:24.114Z,24.02
2023-05-15T07:08:51.891Z,29.58
2023-05-15T07:11:21.156Z,25.23
2023-05-15T07:13:50.194Z,22.63
2023-05-15T07:16:18.574Z,25.42
2023-05-15T07:18:46.589Z,25.05
2023-05-15T07:21:14.558Z,23.70
2023-05-15T07:23:42.410Z,26.60
2023-05-15T07:26:14.113Z,22.08
2023-05-15T07:28:46.202Z,26.50
2023-05-15T07:31:14.157Z,25.13
2023-05-15T07:33:42.235Z,29.27
2023-05-15T07:36:10.300Z,26.58
2023-05-15T07:38:38.095Z,25.48
2023-05-15T07:41:06.038Z,26.35
2023-05-15T07:43:33.766Z,30.67
2023-05-15T07:46:03.035Z,28.85
2023-05-15T07:48:30.932Z,25.85
2023-05-15T07:50:58.702Z,23.45
2023-05-15T07:53:26.551Z,31.17
2023-05-15T07:55:54.553Z,28.45
2023-05-15T07:58:23.251Z,23.85
2023-05-15T08:00:51.151Z,23.35
2023-05-15T08:03:23.528Z,27.67
2023-05-15T08:05:52.052Z,22.23
2023-05-15T08:08:20.185Z,20.45
2023-05-15T08:10:47.969Z,25.60
2023-05-15T08:13:15.827Z,21.80
2023-05-15T08:15:44.388Z,23.83
2023-05-15T08:18:12.568Z,19.70
2023-05-15T08:20:41.777Z,20.98
2023-05-15T08:23:09.607Z,22.17
2023-05-15T08:25:37.405Z,22.77
2023-05-15T08:28:05.947Z,22.67
2023-05-15T08:30:33.796Z,23.08
2023-05-15T08:33:01.702Z,23.63
2023-05-15T08:35:29.563Z,22.67
2023-05-15T08:37:58.993Z,23.77
2023-05-15T08:40:38.150Z,20.10
2023-05-15T08:43:15.045Z,26.23
2023-05-15T08:45:44.098Z,24.48
2023-05-15T08:48:17.303Z,24.35
2023-05-15T08:50:45.951Z,25.60
2023-05-15T08:53:16.214Z,23.10
2023-05-15T08:55:44.244Z,29.55
2023-05-15T08:58:12.144Z,27.55
2023-05-15T09:00:40.041Z,30.88
2023-05-15T09:03:08.067Z,28.30
2023-05-15T09:05:37.386Z,38.28
2023-05-15T09:08:09.336Z,30.95
2023-05-15T09:10:38.544Z,32.92
2023-05-15T09:13:08.234Z,35.35
2023-05-15T09:15:37.297Z,36.58
2023-05-15T09:18:07.864Z,34.05
2023-05-15T09:20:37.567Z,40.08
2023-05-15T09:23:06.615Z,42.13
2023-05-15T09:25:37.727Z,41.30
2023-05-15T09:28:07.452Z,41.65
2023-05-15T09:30:35.586Z,38.50
2023-05-15T09:33:04.981Z,39.92
2023-05-15T09:35:34.004Z,40.75
2023-05-15T09:38:02.927Z,40.72
2023-05-15T09:40:31.760Z,40.35
2023-05-15T09:42:59.740Z,49.30
2023-05-15T09:45:30.367Z,45.92
2023-05-15T09:48:02.537Z,42.55
2023-05-15T09:50:34.807Z,43.35
2023-05-15T09:53:03.226Z,47.13
2023-05-15T09:55:32.852Z,48.40
2023-05-15T09:58:08.815Z,48.83
2023-05-15T10:00:47.980Z,55.65
2023-05-15T10:03:19.968Z,50.13
2023-05-15T10:05:48.075Z,56.53
2023-05-15T10:08:16.214Z,59.15
2023-05-15T10:10:44.520Z,62.13
2023-05-15T10:13:12.787Z,56.55
2023-05-15T10:15:42.721Z,61.83
2023-05-15T10:18:10.624Z,63.60
2023-05-15T10:20:39.730Z,62.42
2023-05-15T10:23:11.726Z,66.57
2023-05-15T10:25:44.279Z,71.03
2023-05-15T10:28:13.251Z,64.50
2023-05-15T10:30:44.204Z,55.47
2023-05-15T10:33:14.418Z,57.00
2023-05-15T10:35:43.700Z,50.97
2023-05-15T10:38:12.742Z,49.65
2023-05-15T10:40:42.903Z,44.35
2023-05-15T10:43:12.534Z,42.72
2023-05-15T10:45:44.518Z,40.58
2023-05-15T10:48:13.615Z,37.95
2023-05-15T10:50:41.674Z,34.40
2023-05-15T10:53:11.096Z,34.55
2023-05-15T10:55:38.957Z,35.03
2023-05-15T10:58:10.137Z,31.80
2023-05-15T11:00:44.868Z,30.67
2023-05-15T11:03:15.200Z,31.55
2023-05-15T11:06:08.609Z,32.47
2023-05-15T11:08:36.883Z,32.70
2023-05-15T11:11:04.707Z,35.55
2023-05-15T11:14:12.253Z,32.28
2023-05-15T11:17:01.256Z,22.73
2023-05-15T11:19:58.786Z,23.55
2023-05-15T11:22:31.888Z,20.92
2023-05-15T11:25:01.626Z,22.35
2023-05-15T11:27:31.975Z,21.10
2023-05-15T11:30:14.832Z,22.83
2023-05-15T11:32:46.670Z,24.52
2023-05-15T11:35:19.110Z,21.38
2023-05-15T11:37:49.494Z,21.75
2023-05-15T11:40:22.414Z,22.95
2023-05-15T11:43:20.416Z,17.37
2023-05-15T11:45:49.980Z,14.45
2023-05-15T11:48:20.724Z,11.88
2023-05-15T11:50:48.634Z,12.57
2023-05-15T11:53:16.630Z,14.50
2023-05-15T11:55:45.955Z,11.98
2023-05-15T11:58:15.474Z,10.23
2023-05-15T12:00:43.730Z,10.98
2023-05-15T12:03:25.636Z,13.88
2023-05-15T12:05:59.392Z,9.60
2023-05-15T12:08:32.564Z,8.82
2023-05-15T12:11:01.112Z,10.32
2023-05-15T12:13:29.283Z,16.58
2023-05-15T12:15:57.962Z,13.15
2023-05-15T12:18:27.268Z,16.92
2023-05-15T12:20:56.019Z,13.55
2023-05-15T12:23:25.140Z,17.60
2023-05-15T12:25:58.377Z,19.63
2023-05-15T12:28:27.266Z,14.60
2023-05-15T12:30:55.912Z,16.52
2023-05-15T12:33:24.495Z,13.05
2023-05-15T12:35:58.918Z,11.00
2023-05-15T12:38:28.898Z,9.73
2023-05-15T12:40:57.211Z,13.10
2023-05-15T12:43:26.217Z,19.88
2023-05-15T12:45:54.908Z,14.68
2023-05-15T12:48:23.440Z,19.25
2023-05-15T12:50:51.631Z,16.27
2023-05-15T12:53:23.022Z,17.15
2023-05-15T12:55:52.265Z,20.30
2023-05-15T12:58:21.040Z,27.55
2023-05-15T13:00:50.247Z,21.23
2023-05-15T13:03:21.501Z,15.93
2023-05-15T13:05:49.403Z,16.20
2023-05-15T13:08:18.789Z,19.58
2023-05-15T13:10:48.733Z,12.32
2023-05-15T13:13:17.724Z,13.63
2023-05-15T13:15:46.606Z,12.93
2023-05-15T13:18:16.118Z,19.48
2023-05-15T13:20:45.408Z,18.15
2023-05-15T13:23:16.092Z,15.55
2023-05-15T13:25:46.360Z,18.85
2023-05-15T13:28:15.889Z,12.85
2023-05-15T13:30:44.362Z,15.95
2023-05-15T13:33:13.628Z,20.55
2023-05-15T13:35:44.086Z,14.82
2023-05-15T13:38:12.694Z,12.10
2023-05-15T13:40:45.490Z,15.32
2023-05-15T13:43:13.273Z,11.95
2023-05-15T13:45:42.657Z,14.00
2023-05-15T13:48:10.565Z,11.98
2023-05-15T13:50:38.511Z,12.85
2023-05-15T13:53:06.296Z,11.07
2023-05-15T13:55:34.254Z,12.82
2023-05-15T13:58:02.381Z,11.82
2023-05-15T14:00:30.405Z,11.57
2023-05-15T14:02:59.753Z,13.98
2023-05-15T14:05:27.595Z,11.27
2023-05-15T14:07:57.095Z,14.50
2023-05-15T14:10:25.286Z,9.38
2023-05-15T14:12:53.581Z,7.35
2023-05-15T14:15:21.397Z,7.90
2023-05-15T14:17:50.680Z,4.47
2023-05-15T14:20:20.048Z,10.93
2023-05-15T14:22:47.892Z,5.40
2023-05-15T14:25:15.690Z,5.75
2023-05-15T14:27:43.682Z,7.43
2023-05-15T14:30:12.264Z,5.93
2023-05-15T14:32:40.129Z,6.78
2023-05-15T14:35:08.602Z,6.22
2023-05-15T14:37:38.376Z,6.90
2023-05-15T14:40:08.107Z,6.13
2023-05-15T14:42:35.887Z,4.90
2023-05-15T14:45:05.264Z,9.65
2023-05-15T14:47:33.818Z,7.63
2023-05-15T14:50:01.680Z,12.85
2023-05-15T14:52:29.749Z,12.45
2023-05-15T14:55:08.576Z,8.60
2023-05-15T14:57:37.417Z,11.15
2023-05-15T15:00:06.729Z,10.98
2023-05-15T15:02:34.878Z,7.63
2023-05-15T15:05:03.062Z,12.00
2023-05-15T15:07:31.408Z,8.15
2023-05-15T15:10:00.769Z,10.23
2023-05-15T15:12:28.538Z,11.10
2023-05-15T15:14:56.333Z,12.43
2023-05-15T15:17:24.116Z,12.25
2023-05-15T15:19:51.959Z,10.93
2023-05-15T15:22:19.801Z,12.88
2023-05-15T15:24:48.057Z,11.75
2023-05-15T15:27:18.458Z,9.05
2023-05-15T15:29:46.794Z,11.85
2023-05-15T15:32:14.709Z,12.13
2023-05-15T15:34:42.790Z,15.15
2023-05-15T15:37:11.457Z,17.17
2023-05-15T15:39:39.256Z,17.40
2023-05-15T15:42:07.479Z,9.45
2023-05-15T15:44:36.726Z,15.05
2023-05-15T15:47:04.855Z,10.60
2023-05-15T15:49:33.054Z,12.55
2023-05-15T15:52:01.245Z,11.45
2023-05-15T15:54:30.272Z,11.90
2023-05-15T15:56:58.175Z,14.40
2023-05-15T15:59:26.236Z,14.63
2023-05-15T16:01:55.712Z,14.90
2023-05-15T16:04:23.611Z,10.85
2023-05-15T16:06:51.488Z,13.82
2023-05-15T16:09:20.319Z,8.60
2023-05-15T16:11:48.090Z,8.77
2023-05-15T16:14:15.899Z,10.68
2023-05-15T16:16:43.728Z,12.95
2023-05-15T16:19:13.669Z,14.00
2023-05-15T16:21:41.499Z,11.82
2023-05-15T16:24:09.336Z,13.68
2023-05-15T16:26:39.560Z,14.68
2023-05-15T16:29:07.360Z,15.98
2023-05-15T16:31:35.306Z,12.85
2023-05-15T16:34:03.893Z,14.05
2023-05-15T16:36:33.220Z,11.77
2023-05-15T16:39:03.088Z,14.18
2023-05-15T16:41:31.126Z,17.90
2023-05-15T16:43:58.869Z,20.85
2023-05-15T16:46:26.674Z,21.58
2023-05-15T16:48:54.436Z,19.63
2023-05-15T16:51:22.642Z,27.27
2023-05-15T16:53:52.716Z,26.23
2023-05-15T16:56:20.980Z,23.30
2023-05-15T16:58:48.855Z,17.80
2023-05-15T17:01:16.721Z,18.58
2023-05-15T17:03:44.793Z,24.80
2023-05-15T17:06:12.643Z,16.92
2023-05-15T17:08:42.627Z,22.20
2023-05-15T17:11:13.356Z,19.70
2023-05-15T17:13:41.615Z,21.20
2023-05-15T17:16:09.768Z,22.40
2023-05-15T17:18:39.967Z,22.00
2023-05-15T17:21:08.002Z,18.42
2023-05-15T17:23:36.139Z,17.45
2023-05-15T17:26:04.363Z,23.25
2023-05-15T17:28:35.780Z,17.38
2023-05-15T17:31:10.434Z,18.45
2023-05-15T17:33:38.279Z,18.92
2023-05-15T17:36:06.339Z,23.35
2023-05-15T17:38:34.239Z,16.98
2023-05-15T17:41:02.134Z,28.17
2023-05-15T17:43:29.941Z,20.30
2023-05-15T17:46:00.422Z,36.97
2023-05-15T17:48:28.458Z,20.25
2023-05-15T17:50:56.302Z,21.90
2023-05-15T17:53:24.534Z,15.15
2023-05-15T17:55:52.494Z,19.55
2023-05-15T17:58:21.231Z,20.40
2023-05-15T18:00:49.048Z,28.38
2023-05-15T18:03:21.131Z,20.73
2023-05-15T18:05:49.178Z,25.15
2023-05-15T18:08:16.975Z,16.52
2023-05-15T18:10:45.053Z,16.00
2023-05-15T18:13:12.845Z,19.20
2023-05-15T18:15:40.742Z,15.13
2023-05-15T18:18:08.683Z,21.63
2023-05-15T18:20:37.918Z,20.98
2023-05-15T18:23:05.769Z,28.10
2023-05-15T18:25:36.745Z,29.23
2023-05-15T18:28:04.694Z,16.70
2023-05-15T18:30:32.489Z,26.50
2023-05-15T18:33:00.376Z,21.42
2023-05-15T18:35:28.417Z,17.35
2023-05-15T18:37:57.948Z,21.38
2023-05-15T18:40:26.492Z,21.27
2023-05-15T18:42:55.374Z,21.67
2023-05-15T18:45:24.035Z,22.67
2023-05-15T18:47:52.992Z,25.33
2023-05-15T18:50:21.036Z,27.15
2023-05-15T18:52:48.989Z,17.10
2023-05-15T18:55:18.234Z,19.45
2023-05-15T18:57:46.041Z,14.68
2023-05-15T19:00:18.923Z,15.45
2023-05-15T19:02:51.735Z,25.85
2023-05-15T19:05:19.953Z,15.13
2023-05-15T19:07:47.993Z,21.50
2023-05-15T19:10:16.017Z,19.65
2023-05-15T19:12:45.400Z,18.13
2023-05-15T19:15:14.001Z,14.40
2023-05-15T19:17:42.377Z,19.27
2023-05-15T19:20:11.129Z,13.25
2023-05-15T19:22:38.937Z,16.50
2023-05-15T19:25:07.874Z,22.90
2023-05-15T19:27:35.923Z,18.98
2023-05-15T19:30:07.021Z,19.27
2023-05-15T19:32:35.432Z,14.27
2023-05-15T19:35:03.574Z,15.55
2023-05-15T19:37:31.390Z,30.95
2023-05-15T19:39:59.295Z,15.43
2023-05-15T19:42:27.192Z,16.80
2023-05-15T19:44:55.026Z,10.68
2023-05-15T19:47:24.234Z,16.30
2023-05-15T19:49:52.062Z,17.00
2023-05-15T19:52:20.838Z,16.63
2023-05-15T19:54:48.668Z,13.82
2023-05-15T19:57:16.536Z,14.95
2023-05-15T19:59:44.411Z,14.48
2023-05-15T20:02:12.337Z,26.85
2023-05-15T20:04:41.611Z,18.20
2023-05-15T20:07:09.399Z,13.88
2023-05-15T20:09:39.395Z,28.55
2023-05-15T20:12:08.220Z,17.65
2023-05-15T20:14:36.448Z,19.52
2023-05-15T20:17:04.739Z,32.13
2023-05-15T20:19:32.611Z,20.73
2023-05-15T20:22:01.775Z,23.30
2023-05-15T20:24:30.336Z,17.45
2023-05-15T20:26:58.440Z,15.48
2023-05-15T20:29:26.539Z,31.70
2023-05-15T20:31:54.413Z,23.33
2023-05-15T20:34:23.365Z,20.40
2023-05-15T20:36:52.638Z,11.88
2023-05-15T20:39:21.849Z,19.52
2023-05-15T20:41:50.179Z,20.13
2023-05-15T20:44:18.137Z,16.45
2023-05-15T20:46:45.967Z,22.55
2023-05-15T20:49:13.762Z,21.45
2023-05-15T20:51:44.505Z,15.13
2023-05-15T20:54:12.345Z,16.10
2023-05-15T20:56:41.876Z,28.65
2023-05-15T20:59:09.737Z,26.17
2023-05-15T21:01:37.657Z,20.20
2023-05-15T21:04:05.639Z,24.35
2023-05-15T21:06:33.589Z,21.92
2023-05-15T21:09:01.377Z,22.00
2023-05-15T21:11:30.147Z,24.17
2023-05-15T21:13:59.293Z,22.45
2023-05-15T21:16:27.177Z,27.92
2023-05-15T21:18:54.957Z,18.95
2023-05-15T21:21:22.792Z,26.13
2023-05-15T21:23:50.621Z,22.40
2023-05-15T21:26:18.484Z,26.42
2023-05-15T21:28:46.299Z,22.45
2023-05-15T21:31:15.496Z,16.65
2023-05-15T21:33:43.393Z,34.92
2023-05-15T21:36:11.305Z,22.83
2023-05-15T21:38:39.130Z,21.67
2023-05-15T21:41:06.955Z,17.70
2023-05-15T21:43:34.756Z,18.60
2023-05-15T21:46:02.543Z,22.45
2023-05-15T21:48:31.742Z,16.05
2023-05-15T21:50:59.711Z,27.40
2023-05-15T21:53:27.809Z,22.08
2023-05-15T21:56:00.440Z,27.15
2023-05-15T21:58:28.501Z,17.65
2023-05-15T22:00:56.593Z,20.98
2023-05-15T22:03:24.810Z,26.13
2023-05-15T22:05:54.172Z,16.17
2023-05-15T22:08:22.260Z,27.88
2023-05-15T22:10:50.589Z,29.10
2023-05-15T22:13:21.357Z,18.95
2023-05-15T22:15:49.235Z,25.17
2023-05-15T22:18:17.187Z,25.15
2023-05-15T22:20:45.757Z,25.45
2023-05-15T22:23:14.868Z,19.15
2023-05-15T22:25:42.772Z,18.65
2023-05-15T22:28:12.345Z,20.80
2023-05-15T22:30:40.349Z,23.00
2023-05-15T22:33:08.198Z,14.02
2023-05-15T22:35:36.114Z,27.65
2023-05-15T22:38:05.712Z,17.52
2023-05-15T22:40:34.855Z,15.90
2023-05-15T22:43:02.685Z,17.50
2023-05-15T22:45:30.457Z,15.93
2023-05-15T22:47:58.395Z,21.77
2023-05-15T22:50:26.666Z,20.27
2023-05-15T22:52:54.856Z,18.00
2023-05-15T22:55:22.820Z,23.50
2023-05-15T22:57:52.005Z,18.33
2023-05-15T23:00:20.265Z,18.00
2023-05-15T23:02:48.219Z,18.90
2023-05-15T23:05:16.271Z,19.33
2023-05-15T23:07:44.028Z,20.45
2023-05-15T23:10:12.234Z,19.88
2023-05-15T23:12:40.600Z,21.95
2023-05-15T23:15:11.389Z,16.05
2023-05-15T23:17:39.490Z,17.67
2023-05-15T23:20:10.451Z,16.27
2023-05-15T23:22:38.663Z,16.08
2023-05-15T23:25:07.784Z,25.13
2023-05-15T23:27:35.526Z,18.77
2023-05-15T23:30:03.393Z,15.25
2023-05-15T23:32:32.580Z,21.08
2023-05-15T23:35:00.412Z,20.83
2023-05-15T23:37:28.171Z,30.70
2023-05-15T23:39:56.030Z,15.10
2023-05-15T23:42:24.456Z,18.40
2023-05-15T23:44:52.220Z,22.10
2023-05-15T23:47:19.936Z,14.02
2023-05-15T23:49:49.248Z,19.17
2023-05-15T23:52:16.994Z,18.27
2023-05-15T23:54:44.787Z,15.20
2023-05-15T23:57:12.554Z,15.98
2023-05-15T23:59:40.383Z,18.77
